sensor_id;sensor_type;location;lat;lon;timestamp;temperature;humidity
3818;DHT22;1924;48.078;11.516;2023-02-22T00:00:53;5.20;95.30
3818;DHT22;1924;48.078;11.516;2023-02-22T00:03:26;5.00;95.60
3818;DHT22;1924;48.078;11.516;2023-02-22T00:05:56;5.00;96.00
3818;DHT22;1924;48.078;11.516;2023-02-22T00:08:25;5.10;96.20
3818;DHT22;1924;48.078;11.516;2023-02-22T00:10:54;5.20;95.70
3818;DHT22;1924;48.078;11.516;2023-02-22T00:13:23;5.30;95.90
3818;DHT22;1924;48.078;11.516;2023-02-22T00:15:49;5.20;95.70
3818;DHT22;1924;48.078;11.516;2023-02-22T00:18:17;5.10;95.90
3818;DHT22;1924;48.078;11.516;2023-02-22T00:20:44;5.30;95.90
3818;DHT22;1924;48.078;11.516;2023-02-22T00:23:14;5.30;95.70
3818;DHT22;1924;48.078;11.516;2023-02-22T00:25:43;5.20;95.80
3818;DHT22;1924;48.078;11.516;2023-02-22T00:28:10;5.30;95.90
3818;DHT22;1924;48.078;11.516;2023-02-22T00:30:38;5.50;95.60
3818;DHT22;1924;48.078;11.516;2023-02-22T00:33:08;5.70;95.30
3818;DHT22;1924;48.078;11.516;2023-02-22T00:35:35;5.60;95.20
3818;DHT22;1924;48.078;11.516;2023-02-22T00:38:02;5.60;95.50
3818;DHT22;1924;48.078;11.516;2023-02-22T00:40:31;5.80;95.30
3818;DHT22;1924;48.078;11.516;2023-02-22T00:43:00;5.70;95.00
3818;DHT22;1924;48.078;11.516;2023-02-22T00:45:29;5.70;95.20
3818;DHT22;1924;48.078;11.516;2023-02-22T00:47:58;5.40;95.10
3818;DHT22;1924;48.078;11.516;2023-02-22T00:50:27;5.30;95.80
3818;DHT22;1924;48.078;11.516;2023-02-22T00:52:55;5.60;95.60
3818;DHT22;1924;48.078;11.516;2023-02-22T00:55:25;5.70;95.20
3818;DHT22;1924;48.078;11.516;2023-02-22T00:57:52;5.40;95.20
3818;DHT22;1924;48.078;11.516;2023-02-22T01:00:21;5.20;95.70
3818;DHT22;1924;48.078;11.516;2023-02-22T01:02:48;5.20;95.90
3818;DHT22;1924;48.078;11.516;2023-02-22T01:05:19;5.20;95.90
3818;DHT22;1924;48.078;11.516;2023-02-22T01:07:46;5.10;96.00
3818;DHT22;1924;48.078;11.516;2023-02-22T01:10:15;5.00;96.30
3818;DHT22;1924;48.078;11.516;2023-02-22T01:12:42;5.20;96.20
3818;DHT22;1924;48.078;11.516;2023-02-22T01:15:11;5.30;95.90
3818;DHT22;1924;48.078;11.516;2023-02-22T01:17:38;5.20;96.00
3818;DHT22;1924;48.078;11.516;2023-02-22T01:20:08;5.20;96.00
3818;DHT22;1924;48.078;11.516;2023-02-22T01:22:38;5.10;95.80
3818;DHT22;1924;48.078;11.516;2023-02-22T01:25:06;5.00;96.00
3818;DHT22;1924;48.078;11.516;2023-02-22T01:27:33;5.00;96.10
3818;DHT22;1924;48.078;11.516;2023-02-22T01:29:59;5.20;95.90
3818;DHT22;1924;48.078;11.516;2023-02-22T01:32:26;5.20;95.70
3818;DHT22;1924;48.078;11.516;2023-02-22T01:34:53;5.20;95.70
3818;DHT22;1924;48.078;11.516;2023-02-22T01:37:20;5.20;95.60
3818;DHT22;1924;48.078;11.516;2023-02-22T01:39:48;5.20;95.50
3818;DHT22;1924;48.078;11.516;2023-02-22T01:42:15;5.30;95.40
3818;DHT22;1924;48.078;11.516;2023-02-22T01:44:42;5.30;95.30
3818;DHT22;1924;48.078;11.516;2023-02-22T01:47:09;5.10;95.40
3818;DHT22;1924;48.078;11.516;2023-02-22T01:49:38;4.90;95.80
3818;DHT22;1924;48.078;11.516;2023-02-22T01:52:09;4.60;95.80
3818;DHT22;1924;48.078;11.516;2023-02-22T01:54:39;4.60;96.20
3818;DHT22;1924;48.078;11.516;2023-02-22T01:57:14;4.60;96.70
3818;DHT22;1924;48.078;11.516;2023-02-22T01:59:45;4.70;96.10
3818;DHT22;1924;48.078;11.516;2023-02-22T02:02:13;4.70;96.00
3818;DHT22;1924;48.078;11.516;2023-02-22T02:04:41;4.50;96.40
3818;DHT22;1924;48.078;11.516;2023-02-22T02:07:10;4.50;96.50
3818;DHT22;1924;48.078;11.516;2023-02-22T02:09:46;4.40;96.50
3818;DHT22;1924;48.078;11.516;2023-02-22T02:12:16;4.30;96.70
3818;DHT22;1924;48.078;11.516;2023-02-22T02:14:44;4.40;96.90
3818;DHT22;1924;48.078;11.516;2023-02-22T02:17:12;4.50;96.90
3818;DHT22;1924;48.078;11.516;2023-02-22T02:19:47;4.60;96.60
3818;DHT22;1924;48.078;11.516;2023-02-22T02:22:27;4.60;96.60
3818;DHT22;1924;48.078;11.516;2023-02-22T02:31:30;4.40;96.70
3818;DHT22;1924;48.078;11.516;2023-02-22T02:34:04;4.30;97.20
3818;DHT22;1924;48.078;11.516;2023-02-22T02:36:45;4.40;97.20
3818;DHT22;1924;48.078;11.516;2023-02-22T02:39:19;4.40;97.20
3818;DHT22;1924;48.078;11.516;2023-02-22T02:41:51;4.40;96.90
3818;DHT22;1924;48.078;11.516;2023-02-22T02:44:21;4.30;97.10
3818;DHT22;1924;48.078;11.516;2023-02-22T02:46:52;4.10;97.40
3818;DHT22;1924;48.078;11.516;2023-02-22T02:49:26;4.00;97.40
3818;DHT22;1924;48.078;11.516;2023-02-22T02:51:55;4.10;98.00
3818;DHT22;1924;48.078;11.516;2023-02-22T02:54:24;4.30;97.40
3818;DHT22;1924;48.078;11.516;2023-02-22T02:56:52;4.40;97.50
3818;DHT22;1924;48.078;11.516;2023-02-22T02:59:29;4.40;97.30
3818;DHT22;1924;48.078;11.516;2023-02-22T03:02:09;4.50;97.20
3818;DHT22;1924;48.078;11.516;2023-02-22T03:04:55;4.50;97.10
3818;DHT22;1924;48.078;11.516;2023-02-22T05:02:25;3.70;97.30
3818;DHT22;1924;48.078;11.516;2023-02-22T05:04:52;3.60;97.70
3818;DHT22;1924;48.078;11.516;2023-02-22T05:07:18;3.70;97.80
3818;DHT22;1924;48.078;11.516;2023-02-22T05:09:45;3.70;97.70
3818;DHT22;1924;48.078;11.516;2023-02-22T05:12:12;3.70;97.90
3818;DHT22;1924;48.078;11.516;2023-02-22T05:14:39;3.80;97.50
3818;DHT22;1924;48.078;11.516;2023-02-22T05:17:07;3.90;97.50
3818;DHT22;1924;48.078;11.516;2023-02-22T05:19:35;3.80;97.80
3818;DHT22;1924;48.078;11.516;2023-02-22T05:22:02;4.00;97.50
3818;DHT22;1924;48.078;11.516;2023-02-22T05:24:30;3.90;97.30
3818;DHT22;1924;48.078;11.516;2023-02-22T05:26:57;3.60;97.50
3818;DHT22;1924;48.078;11.516;2023-02-22T05:29:23;3.60;98.10
3818;DHT22;1924;48.078;11.516;2023-02-22T05:31:50;3.70;97.90
3818;DHT22;1924;48.078;11.516;2023-02-22T05:34:17;3.70;98.00
3818;DHT22;1924;48.078;11.516;2023-02-22T05:36:45;3.80;97.90
3818;DHT22;1924;48.078;11.516;2023-02-22T05:39:12;3.70;97.60
3818;DHT22;1924;48.078;11.516;2023-02-22T05:41:39;3.60;97.90
3818;DHT22;1924;48.078;11.516;2023-02-22T05:44:05;3.80;97.70
3818;DHT22;1924;48.078;11.516;2023-02-22T05:46:32;3.70;97.80
3818;DHT22;1924;48.078;11.516;2023-02-22T05:48:59;3.80;97.50
3818;DHT22;1924;48.078;11.516;2023-02-22T05:51:26;3.50;97.80
3818;DHT22;1924;48.078;11.516;2023-02-22T05:53:54;3.50;98.00
3818;DHT22;1924;48.078;11.516;2023-02-22T05:56:22;3.70;97.80
3818;DHT22;1924;48.078;11.516;2023-02-22T05:58:49;3.40;97.80
3818;DHT22;1924;48.078;11.516;2023-02-22T06:01:16;3.50;98.30
3818;DHT22;1924;48.078;11.516;2023-02-22T06:03:45;3.70;98.00
3818;DHT22;1924;48.078;11.516;2023-02-22T06:06:12;3.90;97.70
3818;DHT22;1924;48.078;11.516;2023-02-22T06:08:39;3.90;97.50
3818;DHT22;1924;48.078;11.516;2023-02-22T06:11:07;3.90;97.40
3818;DHT22;1924;48.078;11.516;2023-02-22T06:13:34;3.90;97.50
3818;DHT22;1924;48.078;11.516;2023-02-22T06:16:01;4.00;97.40
3818;DHT22;1924;48.078;11.516;2023-02-22T06:18:28;4.00;97.20
3818;DHT22;1924;48.078;11.516;2023-02-22T06:20:56;4.10;97.00
3818;DHT22;1924;48.078;11.516;2023-02-22T06:23:23;4.00;97.20
3818;DHT22;1924;48.078;11.516;2023-02-22T06:25:50;4.00;97.00
3818;DHT22;1924;48.078;11.516;2023-02-22T06:28:18;4.10;97.10
3818;DHT22;1924;48.078;11.516;2023-02-22T06:30:45;4.20;97.00
3818;DHT22;1924;48.078;11.516;2023-02-22T06:33:12;4.30;96.80
3818;DHT22;1924;48.078;11.516;2023-02-22T06:35:39;4.30;96.60
3818;DHT22;1924;48.078;11.516;2023-02-22T06:38:05;4.30;96.80
3818;DHT22;1924;48.078;11.516;2023-02-22T06:40:32;4.30;96.80
3818;DHT22;1924;48.078;11.516;2023-02-22T06:42:59;4.20;96.70
3818;DHT22;1924;48.078;11.516;2023-02-22T06:45:27;4.20;96.80
3818;DHT22;1924;48.078;11.516;2023-02-22T06:47:53;4.20;96.80
3818;DHT22;1924;48.078;11.516;2023-02-22T06:50:22;4.10;97.10
3818;DHT22;1924;48.078;11.516;2023-02-22T06:52:50;4.00;97.10
3818;DHT22;1924;48.078;11.516;2023-02-22T06:55:19;4.00;97.50
3818;DHT22;1924;48.078;11.516;2023-02-22T06:57:46;3.90;97.80
3818;DHT22;1924;48.078;11.516;2023-02-22T07:00:15;3.90;97.80
3818;DHT22;1924;48.078;11.516;2023-02-22T07:02:43;3.80;97.90
3818;DHT22;1924;48.078;11.516;2023-02-22T07:05:11;3.80;98.20
3818;DHT22;1924;48.078;11.516;2023-02-22T07:07:38;3.90;98.30
3818;DHT22;1924;48.078;11.516;2023-02-22T07:10:05;3.90;98.40
3818;DHT22;1924;48.078;11.516;2023-02-22T07:12:34;3.80;98.60
3818;DHT22;1924;48.078;11.516;2023-02-22T07:15:00;4.00;98.90
3818;DHT22;1924;48.078;11.516;2023-02-22T07:17:27;4.10;99.10
3818;DHT22;1924;48.078;11.516;2023-02-22T07:19:55;4.40;99.20
3818;DHT22;1924;48.078;11.516;2023-02-22T07:22:22;4.50;98.40
3818;DHT22;1924;48.078;11.516;2023-02-22T07:24:49;4.70;97.60
3818;DHT22;1924;48.078;11.516;2023-02-22T07:27:15;4.60;97.30
3818;DHT22;1924;48.078;11.516;2023-02-22T07:29:43;4.70;97.50
3818;DHT22;1924;48.078;11.516;2023-02-22T07:32:11;4.70;98.00
3818;DHT22;1924;48.078;11.516;2023-02-22T07:34:38;4.80;97.90
3818;DHT22;1924;48.078;11.516;2023-02-22T07:37:07;4.90;98.30
3818;DHT22;1924;48.078;11.516;2023-02-22T07:39:34;4.90;98.10
3818;DHT22;1924;48.078;11.516;2023-02-22T07:42:02;5.00;98.40
3818;DHT22;1924;48.078;11.516;2023-02-22T07:44:29;5.20;97.10
3818;DHT22;1924;48.078;11.516;2023-02-22T07:46:56;5.40;97.00
3818;DHT22;1924;48.078;11.516;2023-02-22T07:49:22;5.50;96.50
3818;DHT22;1924;48.078;11.516;2023-02-22T07:51:49;5.70;96.00
3818;DHT22;1924;48.078;11.516;2023-02-22T07:54:17;5.80;95.40
3818;DHT22;1924;48.078;11.516;2023-02-22T07:56:45;5.70;95.60
3818;DHT22;1924;48.078;11.516;2023-02-22T07:59:12;5.70;95.40
3818;DHT22;1924;48.078;11.516;2023-02-22T08:01:39;5.90;95.80
3818;DHT22;1924;48.078;11.516;2023-02-22T08:04:06;6.20;95.20
3818;DHT22;1924;48.078;11.516;2023-02-22T08:06:32;6.30;95.20
3818;DHT22;1924;48.078;11.516;2023-02-22T08:08:59;6.30;95.10
3818;DHT22;1924;48.078;11.516;2023-02-22T08:11:27;6.40;95.70
3818;DHT22;1924;48.078;11.516;2023-02-22T08:13:54;6.50;95.50
3818;DHT22;1924;48.078;11.516;2023-02-22T08:16:21;6.60;95.70
3818;DHT22;1924;48.078;11.516;2023-02-22T08:18:47;6.70;94.50
3818;DHT22;1924;48.078;11.516;2023-02-22T08:21:15;6.70;94.10
3818;DHT22;1924;48.078;11.516;2023-02-22T08:23:42;6.80;95.10
3818;DHT22;1924;48.078;11.516;2023-02-22T08:26:10;7.10;95.30
3818;DHT22;1924;48.078;11.516;2023-02-22T08:28:41;7.80;99.90
3818;DHT22;1924;48.078;11.516;2023-02-22T08:31:10;8.20;98.40
3818;DHT22;1924;48.078;11.516;2023-02-22T08:33:37;8.30;95.70
3818;DHT22;1924;48.078;11.516;2023-02-22T08:36:04;8.40;93.70
3818;DHT22;1924;48.078;11.516;2023-02-22T08:38:31;8.60;93.30
3818;DHT22;1924;48.078;11.516;2023-02-22T08:40:58;8.60;91.40
3818;DHT22;1924;48.078;11.516;2023-02-22T08:43:25;8.70;90.40
3818;DHT22;1924;48.078;11.516;2023-02-22T08:45:54;8.40;90.00
3818;DHT22;1924;48.078;11.516;2023-02-22T08:48:21;8.50;90.40
3818;DHT22;1924;48.078;11.516;2023-02-22T08:50:48;8.60;91.10
3818;DHT22;1924;48.078;11.516;2023-02-22T08:53:16;8.60;90.30
3818;DHT22;1924;48.078;11.516;2023-02-22T08:55:44;8.60;89.00
3818;DHT22;1924;48.078;11.516;2023-02-22T08:58:11;8.60;90.00
3818;DHT22;1924;48.078;11.516;2023-02-22T09:00:39;8.70;90.50
3818;DHT22;1924;48.078;11.516;2023-02-22T09:03:11;8.80;90.60
3818;DHT22;1924;48.078;11.516;2023-02-22T09:05:38;8.90;90.70
3818;DHT22;1924;48.078;11.516;2023-02-22T09:08:29;9.00;90.20
3818;DHT22;1924;48.078;11.516;2023-02-22T09:11:08;9.10;90.40
3818;DHT22;1924;48.078;11.516;2023-02-22T09:13:34;9.10;85.60
3818;DHT22;1924;48.078;11.516;2023-02-22T09:16:02;9.10;85.40
3818;DHT22;1924;48.078;11.516;2023-02-22T09:18:30;9.20;87.50
3818;DHT22;1924;48.078;11.516;2023-02-22T09:20:57;9.40;85.70
3818;DHT22;1924;48.078;11.516;2023-02-22T09:23:26;9.50;85.90
3818;DHT22;1924;48.078;11.516;2023-02-22T09:25:53;9.50;85.00
3818;DHT22;1924;48.078;11.516;2023-02-22T09:28:20;9.60;83.80
3818;DHT22;1924;48.078;11.516;2023-02-22T09:30:47;9.80;82.50
3818;DHT22;1924;48.078;11.516;2023-02-22T09:33:15;9.90;81.60
3818;DHT22;1924;48.078;11.516;2023-02-22T09:35:45;10.00;80.80
3818;DHT22;1924;48.078;11.516;2023-02-22T09:38:15;10.10;81.00
3818;DHT22;1924;48.078;11.516;2023-02-22T09:40:45;10.20;78.10
3818;DHT22;1924;48.078;11.516;2023-02-22T09:43:29;10.30;78.60
3818;DHT22;1924;48.078;11.516;2023-02-22T09:46:06;10.50;78.20
3818;DHT22;1924;48.078;11.516;2023-02-22T09:48:39;10.50;77.30
3818;DHT22;1924;48.078;11.516;2023-02-22T09:51:14;10.60;75.80
3818;DHT22;1924;48.078;11.516;2023-02-22T09:53:46;10.70;76.00
3818;DHT22;1924;48.078;11.516;2023-02-22T09:56:16;10.80;72.90
3818;DHT22;1924;48.078;11.516;2023-02-22T09:58:45;11.00;73.30
3818;DHT22;1924;48.078;11.516;2023-02-22T10:01:20;11.30;73.70
3818;DHT22;1924;48.078;11.516;2023-02-22T10:03:55;11.30;70.60
3818;DHT22;1924;48.078;11.516;2023-02-22T10:06:27;11.40;70.50
3818;DHT22;1924;48.078;11.516;2023-02-22T10:08:56;11.60;70.90
3818;DHT22;1924;48.078;11.516;2023-02-22T10:11:37;11.80;71.90
3818;DHT22;1924;48.078;11.516;2023-02-22T10:14:25;11.90;69.90
3818;DHT22;1924;48.078;11.516;2023-02-22T10:17:04;11.90;66.80
3818;DHT22;1924;48.078;11.516;2023-02-22T10:19:41;12.10;68.80
3818;DHT22;1924;48.078;11.516;2023-02-22T10:22:42;12.30;69.70
3818;DHT22;1924;48.078;11.516;2023-02-22T10:25:13;12.30;64.60
3818;DHT22;1924;48.078;11.516;2023-02-22T10:27:46;12.60;64.10
3818;DHT22;1924;48.078;11.516;2023-02-22T10:30:17;12.70;62.00
3818;DHT22;1924;48.078;11.516;2023-02-22T10:32:49;12.80;63.60
3818;DHT22;1924;48.078;11.516;2023-02-22T10:35:21;12.80;64.70
3818;DHT22;1924;48.078;11.516;2023-02-22T10:37:51;13.00;63.40
3818;DHT22;1924;48.078;11.516;2023-02-22T10:40:21;13.20;62.60
3818;DHT22;1924;48.078;11.516;2023-02-22T10:42:57;13.40;62.40
3818;DHT22;1924;48.078;11.516;2023-02-22T10:45:27;13.70;63.00
3818;DHT22;1924;48.078;11.516;2023-02-22T10:47:57;13.50;60.70
3818;DHT22;1924;48.078;11.516;2023-02-22T10:50:26;13.70;63.90
3818;DHT22;1924;48.078;11.516;2023-02-22T10:52:55;13.90;63.60
3818;DHT22;1924;48.078;11.516;2023-02-22T10:55:22;14.10;61.30
3818;DHT22;1924;48.078;11.516;2023-02-22T10:57:50;14.30;61.00
3818;DHT22;1924;48.078;11.516;2023-02-22T11:00:28;14.40;62.00
3818;DHT22;1924;48.078;11.516;2023-02-22T11:02:56;14.40;59.30
3818;DHT22;1924;48.078;11.516;2023-02-22T11:05:29;14.20;56.60
3818;DHT22;1924;48.078;11.516;2023-02-22T11:08:25;14.30;58.40
3818;DHT22;1924;48.078;11.516;2023-02-22T11:10:54;14.20;58.10
3818;DHT22;1924;48.078;11.516;2023-02-22T11:13:26;14.30;57.80
3818;DHT22;1924;48.078;11.516;2023-02-22T11:15:54;14.30;58.60
3818;DHT22;1924;48.078;11.516;2023-02-22T11:18:25;14.40;58.50
3818;DHT22;1924;48.078;11.516;2023-02-22T11:21:00;14.30;57.20
3818;DHT22;1924;48.078;11.516;2023-02-22T11:23:29;14.30;57.00
3818;DHT22;1924;48.078;11.516;2023-02-22T11:26:02;14.00;57.50
3818;DHT22;1924;48.078;11.516;2023-02-22T11:28:31;14.00;57.60
3818;DHT22;1924;48.078;11.516;2023-02-22T11:31:09;14.30;68.50
3818;DHT22;1924;48.078;11.516;2023-02-22T11:33:36;14.30;62.90
3818;DHT22;1924;48.078;11.516;2023-02-22T11:36:05;14.30;63.90
3818;DHT22;1924;48.078;11.516;2023-02-22T11:38:35;14.20;59.50
3818;DHT22;1924;48.078;11.516;2023-02-22T11:41:20;14.00;57.90
3818;DHT22;1924;48.078;11.516;2023-02-22T11:43:52;14.00;59.70
3818;DHT22;1924;48.078;11.516;2023-02-22T11:46:20;14.10;59.60
3818;DHT22;1924;48.078;11.516;2023-02-22T11:48:56;14.10;59.10
3818;DHT22;1924;48.078;11.516;2023-02-22T11:51:33;14.20;60.50
3818;DHT22;1924;48.078;11.516;2023-02-22T11:54:37;14.40;60.10
3818;DHT22;1924;48.078;11.516;2023-02-22T11:57:17;14.30;57.30
3818;DHT22;1924;48.078;11.516;2023-02-22T11:59:54;14.30;57.20
3818;DHT22;1924;48.078;11.516;2023-02-22T12:02:30;14.30;56.40
3818;DHT22;1924;48.078;11.516;2023-02-22T12:05:12;14.40;58.10
3818;DHT22;1924;48.078;11.516;2023-02-22T12:08:00;14.50;58.40
3818;DHT22;1924;48.078;11.516;2023-02-22T12:10:46;14.50;55.60
3818;DHT22;1924;48.078;11.516;2023-02-22T12:13:28;14.60;56.70
3818;DHT22;1924;48.078;11.516;2023-02-22T12:16:02;14.50;55.80
3818;DHT22;1924;48.078;11.516;2023-02-22T12:18:35;14.60;58.10
3818;DHT22;1924;48.078;11.516;2023-02-22T12:21:09;14.80;57.80
3818;DHT22;1924;48.078;11.516;2023-02-22T12:23:44;14.90;56.50
3818;DHT22;1924;48.078;11.516;2023-02-22T12:26:19;14.90;56.00
3818;DHT22;1924;48.078;11.516;2023-02-22T12:28:53;15.10;57.60
3818;DHT22;1924;48.078;11.516;2023-02-22T12:31:28;15.20;57.50
3818;DHT22;1924;48.078;11.516;2023-02-22T12:34:02;15.00;58.40
3818;DHT22;1924;48.078;11.516;2023-02-22T12:36:37;14.80;57.70
3818;DHT22;1924;48.078;11.516;2023-02-22T12:39:24;14.80;59.80
3818;DHT22;1924;48.078;11.516;2023-02-22T12:41:55;14.80;54.20
3818;DHT22;1924;48.078;11.516;2023-02-22T12:44:26;14.90;55.30
3818;DHT22;1924;48.078;11.516;2023-02-22T12:46:56;14.90;55.20
3818;DHT22;1924;48.078;11.516;2023-02-22T12:49:29;14.90;55.10
3818;DHT22;1924;48.078;11.516;2023-02-22T12:52:03;15.00;54.70
3818;DHT22;1924;48.078;11.516;2023-02-22T12:54:40;15.00;52.70
3818;DHT22;1924;48.078;11.516;2023-02-22T12:57:15;15.00;54.10
3818;DHT22;1924;48.078;11.516;2023-02-22T12:59:47;15.20;55.40
3818;DHT22;1924;48.078;11.516;2023-02-22T13:02:18;15.50;54.30
3818;DHT22;1924;48.078;11.516;2023-02-22T13:04:46;15.60;53.80
3818;DHT22;1924;48.078;11.516;2023-02-22T13:07:23;15.60;55.70
3818;DHT22;1924;48.078;11.516;2023-02-22T13:10:19;15.40;54.70
3818;DHT22;1924;48.078;11.516;2023-02-22T13:12:54;15.50;58.30
3818;DHT22;1924;48.078;11.516;2023-02-22T13:15:31;15.60;56.40
3818;DHT22;1924;48.078;11.516;2023-02-22T13:18:06;15.50;56.50
3818;DHT22;1924;48.078;11.516;2023-02-22T13:20:38;15.40;57.40
3818;DHT22;1924;48.078;11.516;2023-02-22T13:23:12;15.50;56.20
3818;DHT22;1924;48.078;11.516;2023-02-22T13:25:43;15.90;62.20
3818;DHT22;1924;48.078;11.516;2023-02-22T13:28:21;16.30;56.30
3818;DHT22;1924;48.078;11.516;2023-02-22T13:31:04;16.60;54.20
3818;DHT22;1924;48.078;11.516;2023-02-22T13:33:45;16.80;52.50
3818;DHT22;1924;48.078;11.516;2023-02-22T13:36:32;16.90;52.00
3818;DHT22;1924;48.078;11.516;2023-02-22T13:39:32;16.90;51.10
3818;DHT22;1924;48.078;11.516;2023-02-22T13:42:19;16.70;54.00
3818;DHT22;1924;48.078;11.516;2023-02-22T13:45:15;16.40;54.20
3818;DHT22;1924;48.078;11.516;2023-02-22T13:48:04;16.10;54.70
3818;DHT22;1924;48.078;11.516;2023-02-22T13:50:43;15.90;54.30
3818;DHT22;1924;48.078;11.516;2023-02-22T13:53:20;16.00;54.90
3818;DHT22;1924;48.078;11.516;2023-02-22T13:55:52;16.10;57.30
3818;DHT22;1924;48.078;11.516;2023-02-22T13:58:21;16.20;57.50
3818;DHT22;1924;48.078;11.516;2023-02-22T14:00:51;16.10;54.30
3818;DHT22;1924;48.078;11.516;2023-02-22T14:03:36;15.80;53.40
3818;DHT22;1924;48.078;11.516;2023-02-22T14:06:06;15.80;54.50
3818;DHT22;1924;48.078;11.516;2023-02-22T14:08:46;15.70;55.00
3818;DHT22;1924;48.078;11.516;2023-02-22T14:11:39;15.70;55.90
3818;DHT22;1924;48.078;11.516;2023-02-22T14:14:15;15.70;56.20
3818;DHT22;1924;48.078;11.516;2023-02-22T14:17:14;15.60;56.40
3818;DHT22;1924;48.078;11.516;2023-02-22T14:19:35;15.30;55.60
3818;DHT22;1924;48.078;11.516;2023-02-22T14:22:03;15.20;57.00
3818;DHT22;1924;48.078;11.516;2023-02-22T14:24:41;15.20;61.50
3818;DHT22;1924;48.078;11.516;2023-02-22T14:27:08;15.20;60.00
3818;DHT22;1924;48.078;11.516;2023-02-22T14:29:35;15.00;57.60
3818;DHT22;1924;48.078;11.516;2023-02-22T14:32:05;14.80;57.60
3818;DHT22;1924;48.078;11.516;2023-02-22T14:34:44;14.60;58.70
3818;DHT22;1924;48.078;11.516;2023-02-22T14:37:15;14.40;59.00
3818;DHT22;1924;48.078;11.516;2023-02-22T14:39:44;14.40;59.90
3818;DHT22;1924;48.078;11.516;2023-02-22T14:42:15;14.30;59.80
3818;DHT22;1924;48.078;11.516;2023-02-22T14:44:51;14.20;60.90
3818;DHT22;1924;48.078;11.516;2023-02-22T14:47:24;14.20;60.30
3818;DHT22;1924;48.078;11.516;2023-02-22T14:49:59;14.20;60.70
3818;DHT22;1924;48.078;11.516;2023-02-22T14:52:29;14.10;60.60
3818;DHT22;1924;48.078;11.516;2023-02-22T14:55:03;14.10;60.60
3818;DHT22;1924;48.078;11.516;2023-02-22T14:57:39;14.00;60.60
3818;DHT22;1924;48.078;11.516;2023-02-22T15:00:14;14.00;61.70
3818;DHT22;1924;48.078;11.516;2023-02-22T15:02:47;14.10;62.10
3818;DHT22;1924;48.078;11.516;2023-02-22T15:05:16;14.00;61.70
3818;DHT22;1924;48.078;11.516;2023-02-22T15:07:54;14.00;62.30
3818;DHT22;1924;48.078;11.516;2023-02-22T15:10:25;14.00;62.70
3818;DHT22;1924;48.078;11.516;2023-02-22T15:12:58;14.00;63.40
3818;DHT22;1924;48.078;11.516;2023-02-22T15:15:35;13.90;62.90
3818;DHT22;1924;48.078;11.516;2023-02-22T15:18:13;13.90;62.50
3818;DHT22;1924;48.078;11.516;2023-02-22T15:20:43;13.80;62.50
3818;DHT22;1924;48.078;11.516;2023-02-22T15:23:13;13.70;64.00
3818;DHT22;1924;48.078;11.516;2023-02-22T15:25:46;13.70;64.80
3818;DHT22;1924;48.078;11.516;2023-02-22T15:28:14;13.70;63.40
3818;DHT22;1924;48.078;11.516;2023-02-22T15:30:42;13.60;64.90
3818;DHT22;1924;48.078;11.516;2023-02-22T15:33:15;13.70;62.90
3818;DHT22;1924;48.078;11.516;2023-02-22T15:35:42;13.60;62.00
3818;DHT22;1924;48.078;11.516;2023-02-22T15:38:25;13.70;63.20
3818;DHT22;1924;48.078;11.516;2023-02-22T15:41:01;13.60;64.30
3818;DHT22;1924;48.078;11.516;2023-02-22T15:43:28;13.50;63.80
3818;DHT22;1924;48.078;11.516;2023-02-22T15:45:56;13.50;64.70
3818;DHT22;1924;48.078;11.516;2023-02-22T15:48:25;13.40;65.50
3818;DHT22;1924;48.078;11.516;2023-02-22T15:51:04;13.30;66.10
3818;DHT22;1924;48.078;11.516;2023-02-22T15:53:38;13.30;64.70
3818;DHT22;1924;48.078;11.516;2023-02-22T15:56:09;13.30;65.00
3818;DHT22;1924;48.078;11.516;2023-02-22T15:58:37;13.20;64.50
3818;DHT22;1924;48.078;11.516;2023-02-22T16:01:06;13.20;65.60
3818;DHT22;1924;48.078;11.516;2023-02-22T16:03:39;13.10;66.50
3818;DHT22;1924;48.078;11.516;2023-02-22T16:06:11;13.10;66.60
3818;DHT22;1924;48.078;11.516;2023-02-22T16:08:42;13.00;66.90
3818;DHT22;1924;48.078;11.516;2023-02-22T16:11:10;12.90;66.00
3818;DHT22;1924;48.078;11.516;2023-02-22T16:13:41;12.90;66.80
3818;DHT22;1924;48.078;11.516;2023-02-22T16:16:21;12.80;67.10
3818;DHT22;1924;48.078;11.516;2023-02-22T16:18:51;12.80;68.10
3818;DHT22;1924;48.078;11.516;2023-02-22T16:21:20;12.70;67.50
3818;DHT22;1924;48.078;11.516;2023-02-22T16:23:49;12.70;68.30
3818;DHT22;1924;48.078;11.516;2023-02-22T16:26:23;12.70;69.20
3818;DHT22;1924;48.078;11.516;2023-02-22T16:28:52;12.60;69.20
3818;DHT22;1924;48.078;11.516;2023-02-22T16:31:20;12.50;69.50
3818;DHT22;1924;48.078;11.516;2023-02-22T16:33:51;12.50;71.60
3818;DHT22;1924;48.078;11.516;2023-02-22T16:36:19;12.40;69.90
3818;DHT22;1924;48.078;11.516;2023-02-22T16:38:47;12.40;70.40
3818;DHT22;1924;48.078;11.516;2023-02-22T16:41:16;12.40;71.30
3818;DHT22;1924;48.078;11.516;2023-02-22T16:43:45;12.30;70.70
3818;DHT22;1924;48.078;11.516;2023-02-22T16:46:16;12.20;71.50
3818;DHT22;1924;48.078;11.516;2023-02-22T16:48:43;12.10;73.70
3818;DHT22;1924;48.078;11.516;2023-02-22T16:51:20;12.10;73.90
3818;DHT22;1924;48.078;11.516;2023-02-22T16:53:47;12.00;72.40
3818;DHT22;1924;48.078;11.516;2023-02-22T16:56:17;12.00;73.20
3818;DHT22;1924;48.078;11.516;2023-02-22T16:58:45;11.90;73.30
3818;DHT22;1924;48.078;11.516;2023-02-22T17:01:14;11.90;74.30
3818;DHT22;1924;48.078;11.516;2023-02-22T17:03:41;11.80;73.80
3818;DHT22;1924;48.078;11.516;2023-02-22T17:06:08;11.70;73.50
3818;DHT22;1924;48.078;11.516;2023-02-22T17:08:37;11.60;74.90
3818;DHT22;1924;48.078;11.516;2023-02-22T17:11:04;11.50;76.00
3818;DHT22;1924;48.078;11.516;2023-02-22T17:13:31;11.40;76.00
3818;DHT22;1924;48.078;11.516;2023-02-22T17:16:00;11.40;75.60
3818;DHT22;1924;48.078;11.516;2023-02-22T17:18:27;11.30;77.40
3818;DHT22;1924;48.078;11.516;2023-02-22T17:20:58;11.20;78.60
3818;DHT22;1924;48.078;11.516;2023-02-22T17:23:26;11.20;78.10
3818;DHT22;1924;48.078;11.516;2023-02-22T17:25:55;11.20;77.30
3818;DHT22;1924;48.078;11.516;2023-02-22T17:28:24;11.10;77.40
3818;DHT22;1924;48.078;11.516;2023-02-22T17:30:51;11.10;77.80
3818;DHT22;1924;48.078;11.516;2023-02-22T17:33:20;11.10;78.50
3818;DHT22;1924;48.078;11.516;2023-02-22T17:35:47;11.00;79.50
3818;DHT22;1924;48.078;11.516;2023-02-22T17:38:14;11.00;79.80
3818;DHT22;1924;48.078;11.516;2023-02-22T17:40:43;10.90;79.80
3818;DHT22;1924;48.078;11.516;2023-02-22T17:43:14;10.90;80.40
3818;DHT22;1924;48.078;11.516;2023-02-22T17:45:43;10.90;80.70
3818;DHT22;1924;48.078;11.516;2023-02-22T17:48:12;10.80;79.90
3818;DHT22;1924;48.078;11.516;2023-02-22T17:50:40;10.80;79.70
3818;DHT22;1924;48.078;11.516;2023-02-22T17:53:07;10.80;79.50
3818;DHT22;1924;48.078;11.516;2023-02-22T17:55:36;10.80;80.00
3818;DHT22;1924;48.078;11.516;2023-02-22T17:58:04;10.70;80.60
3818;DHT22;1924;48.078;11.516;2023-02-22T18:00:35;10.70;80.30
3818;DHT22;1924;48.078;11.516;2023-02-22T18:03:04;10.60;79.50
3818;DHT22;1924;48.078;11.516;2023-02-22T18:05:32;10.50;80.20
3818;DHT22;1924;48.078;11.516;2023-02-22T18:07:59;10.40;81.00
3818;DHT22;1924;48.078;11.516;2023-02-22T18:10:26;10.40;81.20
3818;DHT22;1924;48.078;11.516;2023-02-22T18:12:53;10.30;81.40
3818;DHT22;1924;48.078;11.516;2023-02-22T18:15:21;10.20;80.60
3818;DHT22;1924;48.078;11.516;2023-02-22T18:17:54;10.20;81.70